sensor_id;sensor_type;location;lat;lon;timestamp;pressure;altitude;pressure_sealevel;temperature;humidity
82035;BME280;71599;49.892;18.914;2024-01-15T00:02:03;96982.25;;;-0.69;70.18
82035;BME280;71599;49.892;18.914;2024-01-15T00:07:08;96974.91;;;-0.60;69.97
82035;BME280;71599;49.892;18.914;2024-01-15T00:12:09;96974.13;;;-0.60;69.08
82035;BME280;71599;49.892;18.914;2024-01-15T00:17:10;96963.38;;;-0.60;69.02
82035;BME280;71599;49.892;18.914;2024-01-15T00:22:12;96954.41;;;-0.64;68.81
82035;BME280;71599;49.892;18.914;2024-01-15T00:27:13;96945.69;;;-0.73;68.74
82035;BME280;71599;49.892;18.914;2024-01-15T00:32:14;96933.94;;;-0.69;68.44
82035;BME280;71599;49.892;18.914;2024-01-15T00:37:16;96927.00;;;-0.70;68.12
82035;BME280;71599;49.892;18.914;2024-01-15T00:42:17;96923.34;;;-0.65;67.95
82035;BME280;71599;49.892;18.914;2024-01-15T00:47:18;96916.81;;;-0.77;69.10
82035;BME280;71599;49.892;18.914;2024-01-15T00:52:33;96917.75;;;-0.72;69.03
82035;BME280;71599;49.892;18.914;2024-01-15T00:57:34;96904.13;;;-0.67;68.17
82035;BME280;71599;49.892;18.914;2024-01-15T01:02:35;96903.78;;;-0.66;68.03
82035;BME280;71599;49.892;18.914;2024-01-15T01:07:37;96892.47;;;-0.71;67.56
82035;BME280;71599;49.892;18.914;2024-01-15T01:12:39;96889.56;;;-0.79;68.54
82035;BME280;71599;49.892;18.914;2024-01-15T01:17:40;96882.38;;;-0.87;68.79
82035;BME280;71599;49.892;18.914;2024-01-15T01:22:42;96877.13;;;-0.83;69.66
82035;BME280;71599;49.892;18.914;2024-01-15T01:27:43;96874.16;;;-1.02;70.26
82035;BME280;71599;49.892;18.914;2024-01-15T01:32:44;96867.59;;;-0.93;69.91
82035;BME280;71599;49.892;18.914;2024-01-15T01:37:46;96859.69;;;-0.89;69.06
82035;BME280;71599;49.892;18.914;2024-01-15T01:42:47;96848.38;;;-0.95;69.49
82035;BME280;71599;49.892;18.914;2024-01-15T01:47:49;96844.34;;;-1.01;69.24
82035;BME280;71599;49.892;18.914;2024-01-15T01:52:51;96839.13;;;-0.97;69.60
82035;BME280;71599;49.892;18.914;2024-01-15T01:57:52;96822.25;;;-0.98;68.98
82035;BME280;71599;49.892;18.914;2024-01-15T02:02:54;96811.47;;;-1.10;68.90
82035;BME280;71599;49.892;18.914;2024-01-15T02:07:56;96821.09;;;-1.09;68.31
82035;BME280;71599;49.892;18.914;2024-01-15T02:12:57;96810.72;;;-0.98;68.83
82035;BME280;71599;49.892;18.914;2024-01-15T02:17:59;96816.66;;;-0.93;68.90
82035;BME280;71599;49.892;18.914;2024-01-15T02:23:07;96816.88;;;-0.98;68.87
82035;BME280;71599;49.892;18.914;2024-01-15T02:28:09;96815.53;;;-1.04;69.21
82035;BME280;71599;49.892;18.914;2024-01-15T02:33:11;96820.22;;;-1.01;69.23
82035;BME280;71599;49.892;18.914;2024-01-15T02:38:13;96812.84;;;-1.04;69.24
82035;BME280;71599;49.892;18.914;2024-01-15T02:43:14;96800.31;;;-1.00;69.77
82035;BME280;71599;49.892;18.914;2024-01-15T02:48:15;96792.41;;;-0.96;69.64
82035;BME280;71599;49.892;18.914;2024-01-15T02:53:18;96792.53;;;-0.93;68.94
82035;BME280;71599;49.892;18.914;2024-01-15T02:58:19;96777.78;;;-0.87;68.93
82035;BME280;71599;49.892;18.914;2024-01-15T03:03:20;96759.00;;;-0.99;68.63
82035;BME280;71599;49.892;18.914;2024-01-15T03:08:25;96771.19;;;-0.89;69.50
82035;BME280;71599;49.892;18.914;2024-01-15T03:13:26;96757.91;;;-0.86;68.66
82035;BME280;71599;49.892;18.914;2024-01-15T03:18:27;96742.03;;;-1.03;67.70
82035;BME280;71599;49.892;18.914;2024-01-15T03:23:29;96742.03;;;-0.91;67.94
82035;BME280;71599;49.892;18.914;2024-01-15T03:28:30;96743.03;;;-0.83;67.26
82035;BME280;71599;49.892;18.914;2024-01-15T03:33:31;96720.59;;;-0.91;67.84
82035;BME280;71599;49.892;18.914;2024-01-15T03:38:33;96693.31;;;-0.93;67.16
82035;BME280;71599;49.892;18.914;2024-01-15T03:43:34;96679.91;;;-0.93;66.19
82035;BME280;71599;49.892;18.914;2024-01-15T03:48:35;96683.25;;;-0.84;66.28
82035;BME280;71599;49.892;18.914;2024-01-15T03:53:37;96677.88;;;-0.84;66.89
82035;BME280;71599;49.892;18.914;2024-01-15T03:58:38;96672.41;;;-0.75;66.92
82035;BME280;71599;49.892;18.914;2024-01-15T04:03:39;96674.53;;;-0.81;66.34
82035;BME280;71599;49.892;18.914;2024-01-15T04:08:42;96679.69;;;-0.75;65.54
82035;BME280;71599;49.892;18.914;2024-01-15T04:13:43;96677.78;;;-0.75;66.10
82035;BME280;71599;49.892;18.914;2024-01-15T04:18:44;96669.97;;;-0.80;65.78
82035;BME280;71599;49.892;18.914;2024-01-15T04:23:46;96668.63;;;-0.74;66.45
82035;BME280;71599;49.892;18.914;2024-01-15T04:28:47;96662.47;;;-0.74;66.22
82035;BME280;71599;49.892;18.914;2024-01-15T04:33:48;96656.00;;;-0.73;66.17
82035;BME280;71599;49.892;18.914;2024-01-15T04:38:50;96674.75;;;-0.73;67.37
82035;BME280;71599;49.892;18.914;2024-01-15T04:43:51;96665.25;;;-0.71;67.45
82035;BME280;71599;49.892;18.914;2024-01-15T04:48:52;96671.84;;;-0.68;65.99
82035;BME280;71599;49.892;18.914;2024-01-15T04:53:55;96665.25;;;-0.71;66.46
82035;BME280;71599;49.892;18.914;2024-01-15T04:58:56;96651.19;;;-0.68;67.50
82035;BME280;71599;49.892;18.914;2024-01-15T05:03:57;96639.34;;;-0.79;68.57
82035;BME280;71599;49.892;18.914;2024-01-15T05:08:59;96644.72;;;-0.79;68.49
82035;BME280;71599;49.892;18.914;2024-01-15T05:14:00;96633.06;;;-0.71;69.01
82035;BME280;71599;49.892;18.914;2024-01-15T05:19:01;96632.50;;;-0.77;68.91
82035;BME280;71599;49.892;18.914;2024-01-15T05:24:03;96612.94;;;-0.77;67.62
82035;BME280;71599;49.892;18.914;2024-01-15T05:29:04;96613.09;;;-0.86;68.16
82035;BME280;71599;49.892;18.914;2024-01-15T05:34:05;96606.25;;;-0.83;68.11
82035;BME280;71599;49.892;18.914;2024-01-15T05:39:08;96594.63;;;-0.75;67.18
82035;BME280;71599;49.892;18.914;2024-01-15T05:44:09;96601.22;;;-0.72;66.91
82035;BME280;71599;49.892;18.914;2024-01-15T05:49:10;96611.50;;;-0.74;66.71
82035;BME280;71599;49.892;18.914;2024-01-15T05:54:12;96621.34;;;-0.66;65.42
82035;BME280;71599;49.892;18.914;2024-01-15T05:59:13;96633.50;;;-0.57;65.69
82035;BME280;71599;49.892;18.914;2024-01-15T06:04:14;96653.94;;;-0.52;65.45
82035;BME280;71599;49.892;18.914;2024-01-15T06:09:16;96644.75;;;-0.51;65.96
82035;BME280;71599;49.892;18.914;2024-01-15T06:14:17;96647.69;;;-0.56;65.57
82035;BME280;71599;49.892;18.914;2024-01-15T06:19:18;96628.91;;;-0.56;65.95
82035;BME280;71599;49.892;18.914;2024-01-15T06:24:21;96623.88;;;-0.58;65.84
82035;BME280;71599;49.892;18.914;2024-01-15T06:29:22;96626.00;;;-0.63;65.58
82035;BME280;71599;49.892;18.914;2024-01-15T06:34:22;96626.34;;;-0.65;65.61
82035;BME280;71599;49.892;18.914;2024-01-15T06:39:25;96633.19;;;-0.67;66.04
82035;BME280;71599;49.892;18.914;2024-01-15T06:44:26;96651.06;;;-0.71;65.73
82035;BME280;71599;49.892;18.914;2024-01-15T06:49:27;96658.22;;;-0.75;66.88
82035;BME280;71599;49.892;18.914;2024-01-15T06:54:29;96652.84;;;-0.75;66.37
82035;BME280;71599;49.892;18.914;2024-01-15T06:59:30;96670.19;;;-0.73;66.93
82035;BME280;71599;49.892;18.914;2024-01-15T07:04:31;96656.22;;;-0.79;67.07
82035;BME280;71599;49.892;18.914;2024-01-15T07:09:33;96677.69;;;-0.79;68.17
82035;BME280;71599;49.892;18.914;2024-01-15T07:14:34;96683.38;;;-0.80;67.15
82035;BME280;71599;49.892;18.914;2024-01-15T07:19:35;96698.56;;;-0.84;67.03
82035;BME280;71599;49.892;18.914;2024-01-15T07:24:38;96709.28;;;-0.84;67.62
82035;BME280;71599;49.892;18.914;2024-01-15T07:29:39;96690.63;;;-0.81;67.76
82035;BME280;71599;49.892;18.914;2024-01-15T07:34:40;96695.78;;;-0.88;68.05
82035;BME280;71599;49.892;18.914;2024-01-15T07:39:42;96708.41;;;-0.88;67.52
82035;BME280;71599;49.892;18.914;2024-01-15T07:44:43;96706.72;;;-0.81;67.37
82035;BME280;71599;49.892;18.914;2024-01-15T07:49:44;96718.34;;;-0.77;66.99
82035;BME280;71599;49.892;18.914;2024-01-15T07:54:47;96729.84;;;-0.76;66.84
82035;BME280;71599;49.892;18.914;2024-01-15T07:59:48;96761.94;;;-0.67;65.95
82035;BME280;71599;49.892;18.914;2024-01-15T08:04:49;96762.03;;;-0.64;66.02
82035;BME280;71599;49.892;18.914;2024-01-15T08:09:51;96768.53;;;-0.53;65.85
82035;BME280;71599;49.892;18.914;2024-01-15T08:14:52;96750.53;;;-0.52;65.25
82035;BME280;71599;49.892;18.914;2024-01-15T08:19:54;96770.66;;;-0.58;64.56
82035;BME280;71599;49.892;18.914;2024-01-15T08:24:56;96770.66;;;-0.58;63.92
82035;BME280;71599;49.892;18.914;2024-01-15T08:29:57;96773.69;;;-0.60;64.04
82035;BME280;71599;49.892;18.914;2024-01-15T08:34:58;96780.25;;;-0.57;63.77
82035;BME280;71599;49.892;18.914;2024-01-15T08:40:00;96781.06;;;-0.45;63.85
82035;BME280;71599;49.892;18.914;2024-01-15T08:45:01;96769.31;;;-0.40;62.99
82035;BME280;71599;49.892;18.914;2024-01-15T08:50:04;96773.69;;;-0.48;63.30
82035;BME280;71599;49.892;18.914;2024-01-15T08:55:07;96777.59;;;-0.45;63.24
82035;BME280;71599;49.892;18.914;2024-01-15T09:00:09;96784.19;;;-0.43;63.10
82035;BME280;71599;49.892;18.914;2024-01-15T09:05:11;96785.63;;;-0.45;62.68
82035;BME280;71599;49.892;18.914;2024-01-15T09:10:13;96781.59;;;-0.27;62.46
82035;BME280;71599;49.892;18.914;2024-01-15T09:15:14;96780.25;;;-0.21;62.20
82035;BME280;71599;49.892;18.914;2024-01-15T09:20:16;96790.34;;;-0.30;62.80
82035;BME280;71599;49.892;18.914;2024-01-15T09:25:19;96795.34;;;-0.28;62.43
82035;BME280;71599;49.892;18.914;2024-01-15T09:30:20;96791.41;;;0.06;62.33
82035;BME280;71599;49.892;18.914;2024-01-15T09:35:21;96782.41;;;0.14;61.28
82035;BME280;71599;49.892;18.914;2024-01-15T09:40:25;96785.81;;;0.11;61.10
82035;BME280;71599;49.892;18.914;2024-01-15T09:45:30;96777.78;;;-0.02;60.52
82035;BME280;71599;49.892;18.914;2024-01-15T09:50:31;96783.59;;;0.00;60.94
82035;BME280;71599;49.892;18.914;2024-01-15T09:55:33;96779.66;;;0.10;61.45
82035;BME280;71599;49.892;18.914;2024-01-15T10:00:34;96788.47;;;0.11;60.76
82035;BME280;71599;49.892;18.914;2024-01-15T10:05:36;96773.38;;;0.18;61.38
82035;BME280;71599;49.892;18.914;2024-01-15T10:10:38;96775.59;;;0.16;60.91
82035;BME280;71599;49.892;18.914;2024-01-15T10:15:39;96780.03;;;0.36;60.71
82035;BME280;71599;49.892;18.914;2024-01-15T10:20:40;96768.78;;;0.74;58.23
82035;BME280;71599;49.892;18.914;2024-01-15T10:25:43;96767.19;;;1.17;56.83
82035;BME280;71599;49.892;18.914;2024-01-15T10:30:44;96764.25;;;1.53;55.77
82035;BME280;71599;49.892;18.914;2024-01-15T10:35:45;96773.19;;;1.26;56.18
82035;BME280;71599;49.892;18.914;2024-01-15T10:40:48;96766.84;;;0.75;57.39
82035;BME280;71599;49.892;18.914;2024-01-15T10:45:50;96780.59;;;0.30;58.34
82035;BME280;71599;49.892;18.914;2024-01-15T10:50:52;96776.69;;;0.27;59.17
82035;BME280;71599;49.892;18.914;2024-01-15T10:55:54;96788.31;;;0.87;57.94
82035;BME280;71599;49.892;18.914;2024-01-15T11:00:57;96784.59;;;0.64;58.09
82035;BME280;71599;49.892;18.914;2024-01-15T11:05:59;96789.69;;;0.53;59.41
82035;BME280;71599;49.892;18.914;2024-01-15T11:11:01;96792.75;;;0.39;59.54
82035;BME280;71599;49.892;18.914;2024-01-15T11:16:04;96761.63;;;0.11;59.94
82035;BME280;71599;49.892;18.914;2024-01-15T11:21:21;96780.44;;;-0.02;60.43
82035;BME280;71599;49.892;18.914;2024-01-15T11:26:32;96773.72;;;0.04;61.39
82035;BME280;71599;49.892;18.914;2024-01-15T11:31:58;96774.19;;;-0.06;61.13
82035;BME280;71599;49.892;18.914;2024-01-15T11:37:03;96772.31;;;-0.05;61.49
82035;BME280;71599;49.892;18.914;2024-01-15T11:42:06;96770.28;;;-0.08;61.48
82035;BME280;71599;49.892;18.914;2024-01-15T11:47:08;96767.47;;;0.00;61.90
82035;BME280;71599;49.892;18.914;2024-01-15T11:52:11;96771.56;;;0.22;61.31
82035;BME280;71599;49.892;18.914;2024-01-15T11:57:33;96767.25;;;0.33;61.14
82035;BME280;71599;49.892;18.914;2024-01-15T12:02:39;96754.22;;;0.48;60.50
82035;BME280;71599;49.892;18.914;2024-01-15T12:07:40;96748.34;;;0.58;60.47
82035;BME280;71599;49.892;18.914;2024-01-15T12:12:57;96762.38;;;0.51;59.69
82035;BME280;71599;49.892;18.914;2024-01-15T12:18:00;96757.50;;;0.41;60.67
82035;BME280;71599;49.892;18.914;2024-01-15T12:23:01;96744.81;;;0.14;61.03
82035;BME280;71599;49.892;18.914;2024-01-15T12:28:05;96758.75;;;-0.09;60.91
82035;BME280;71599;49.892;18.914;2024-01-15T12:33:07;96760.88;;;-0.02;61.65
82035;BME280;71599;49.892;18.914;2024-01-15T12:38:08;96758.09;;;-0.06;61.58
82035;BME280;71599;49.892;18.914;2024-01-15T12:43:10;96751.06;;;-0.22;61.33
82035;BME280;71599;49.892;18.914;2024-01-15T12:48:11;96750.03;;;-0.06;61.19
82035;BME280;71599;49.892;18.914;2024-01-15T12:53:12;96751.59;;;-0.17;61.25
82035;BME280;71599;49.892;18.914;2024-01-15T12:58:14;96746.03;;;-0.24;61.30
82035;BME280;71599;49.892;18.914;2024-01-15T13:03:16;96751.31;;;-0.40;61.16
82035;BME280;71599;49.892;18.914;2024-01-15T13:08:17;96733.06;;;-0.34;60.98
82035;BME280;71599;49.892;18.914;2024-01-15T13:13:20;96730.28;;;-0.38;60.90
82035;BME280;71599;49.892;18.914;2024-01-15T13:18:21;96726.28;;;-0.44;61.45
82035;BME280;71599;49.892;18.914;2024-01-15T13:23:22;96736.78;;;-0.51;61.88
82035;BME280;71599;49.892;18.914;2024-01-15T13:28:24;96735.75;;;-0.46;61.72
82035;BME280;71599;49.892;18.914;2024-01-15T13:33:25;96735.53;;;-0.53;62.10
82035;BME280;71599;49.892;18.914;2024-01-15T13:38:26;96738.91;;;-0.56;62.49
82035;BME280;71599;49.892;18.914;2024-01-15T13:43:28;96740.91;;;-0.53;61.95
82035;BME280;71599;49.892;18.914;2024-01-15T13:48:29;96744.75;;;-0.66;63.42
82035;BME280;71599;49.892;18.914;2024-01-15T13:53:30;96735.34;;;-0.60;63.01
82035;BME280;71599;49.892;18.914;2024-01-15T13:58:33;96726.38;;;-0.64;62.96
82035;BME280;71599;49.892;18.914;2024-01-15T14:03:34;96746.28;;;-0.65;63.09
82035;BME280;71599;49.892;18.914;2024-01-15T14:08:35;96725.16;;;-0.79;63.57
82035;BME280;71599;49.892;18.914;2024-01-15T14:13:38;96756.03;;;-0.73;63.93
82035;BME280;71599;49.892;18.914;2024-01-15T14:18:39;96732.19;;;-0.87;63.91
82035;BME280;71599;49.892;18.914;2024-01-15T14:23:40;96765.03;;;-0.78;64.09
82035;BME280;71599;49.892;18.914;2024-01-15T14:28:42;96757.78;;;-0.89;64.30
82035;BME280;71599;49.892;18.914;2024-01-15T14:33:43;96763.13;;;-0.89;64.66
82035;BME280;71599;49.892;18.914;2024-01-15T14:38:44;96770.19;;;-0.85;65.04
82035;BME280;71599;49.892;18.914;2024-01-15T14:43:46;96754.97;;;-1.05;65.26
82035;BME280;71599;49.892;18.914;2024-01-15T14:48:47;96772.09;;;-0.85;65.79
82035;BME280;71599;49.892;18.914;2024-01-15T14:53:48;96781.50;;;-0.79;65.31
82035;BME280;71599;49.892;18.914;2024-01-15T14:58:51;96780.25;;;-0.82;65.28
82035;BME280;71599;49.892;18.914;2024-01-15T15:03:52;96778.81;;;-0.79;65.48
82035;BME280;71599;49.892;18.914;2024-01-15T15:08:53;96783.72;;;-0.81;65.51
82035;BME280;71599;49.892;18.914;2024-01-15T15:13:55;96772.19;;;-0.82;65.10
82035;BME280;71599;49.892;18.914;2024-01-15T15:18:56;96795.69;;;-0.79;65.48
82035;BME280;71599;49.892;18.914;2024-01-15T15:23:57;96798.00;;;-0.77;66.06
82035;BME280;71599;49.892;18.914;2024-01-15T15:28:59;96788.06;;;-0.77;66.11
82035;BME280;71599;49.892;18.914;2024-01-15T15:34:00;96788.06;;;-0.77;65.84
82035;BME280;71599;49.892;18.914;2024-01-15T15:39:02;96798.81;;;-0.77;66.38
82035;BME280;71599;49.892;18.914;2024-01-15T15:44:04;96790.44;;;-0.75;66.94
82035;BME280;71599;49.892;18.914;2024-01-15T15:49:05;96793.66;;;-0.69;66.69
82035;BME280;71599;49.892;18.914;2024-01-15T15:54:06;96789.66;;;-0.75;67.13
82035;BME280;71599;49.892;18.914;2024-01-15T15:59:09;96782.72;;;-0.77;66.84
82035;BME280;71599;49.892;18.914;2024-01-15T16:04:10;96780.59;;;-0.71;66.41
82035;BME280;71599;49.892;18.914;2024-01-15T16:09:11;96799.72;;;-0.72;66.19
82035;BME280;71599;49.892;18.914;2024-01-15T16:14:13;96795.34;;;-0.77;66.46
82035;BME280;71599;49.892;18.914;2024-01-15T16:19:14;96798.81;;;-0.77;66.00
82035;BME280;71599;49.892;18.914;2024-01-15T16:24:15;96795.69;;;-0.79;65.52
82035;BME280;71599;49.892;18.914;2024-01-15T16:29:17;96782.94;;;-0.82;66.02
82035;BME280;71599;49.892;18.914;2024-01-15T16:34:18;96786.41;;;-0.81;66.24
82035;BME280;71599;49.892;18.914;2024-01-15T16:39:19;96797.91;;;-0.81;66.04
82035;BME280;71599;49.892;18.914;2024-01-15T16:44:22;96795.09;;;-0.84;65.54
82035;BME280;71599;49.892;18.914;2024-01-15T16:49:23;96802.38;;;-0.85;65.69
82035;BME280;71599;49.892;18.914;2024-01-15T16:54:24;96806.97;;;-0.85;65.16
82035;BME280;71599;49.892;18.914;2024-01-15T16:59:26;96809.75;;;-0.82;65.80
82035;BME280;71599;49.892;18.914;2024-01-15T17:04:27;96807.28;;;-0.87;65.94
82035;BME280;71599;49.892;18.914;2024-01-15T17:09:28;96810.63;;;-0.90;65.27
82035;BME280;71599;49.892;18.914;2024-01-15T17:14:30;96802.94;;;-0.91;66.48
82035;BME280;71599;49.892;18.914;2024-01-15T17:19:31;96800.81;;;-0.86;66.07
82035;BME280;71599;49.892;18.914;2024-01-15T17:24:32;96808.16;;;-0.95;66.70
82035;BME280;71599;49.892;18.914;2024-01-15T17:29:35;96813.53;;;-0.95;67.32
82035;BME280;71599;49.892;18.914;2024-01-15T17:34:36;96812.06;;;-1.04;69.00
82035;BME280;71599;49.892;18.914;2024-01-15T17:39:37;96792.78;;;-1.19;69.55
82035;BME280;71599;49.892;18.914;2024-01-15T17:44:40;96815.69;;;-1.21;70.44
82035;BME280;71599;49.892;18.914;2024-01-15T17:49:41;96834.69;;;-1.14;70.16
82035;BME280;71599;49.892;18.914;2024-01-15T17:54:42;96832.16;;;-1.10;69.24
82035;BME280;71599;49.892;18.914;2024-01-15T17:59:45;96837.38;;;-1.14;69.26
82035;BME280;71599;49.892;18.914;2024-01-15T18:04:46;96820.63;;;-1.11;69.97
82035;BME280;71599;49.892;18.914;2024-01-15T18:09:47;96826.84;;;-1.19;70.44
82035;BME280;71599;49.892;18.914;2024-01-15T18:14:49;96832.78;;;-1.13;69.65
82035;BME280;71599;49.892;18.914;2024-01-15T18:19:50;96836.88;;;-1.28;69.81
82035;BME280;71599;49.892;18.914;2024-01-15T18:24:51;96831.44;;;-1.20;70.54
82035;BME280;71599;49.892;18.914;2024-01-15T18:29:54;96832.31;;;-1.28;69.11
82035;BME280;71599;49.892;18.914;2024-01-15T18:34:55;96839.63;;;-1.16;69.65
82035;BME280;71599;49.892;18.914;2024-01-15T18:39:55;96851.13;;;-1.15;69.72
82035;BME280;71599;49.892;18.914;2024-01-15T18:44:58;96842.81;;;-1.23;70.20
82035;BME280;71599;49.892;18.914;2024-01-15T18:49:59;96839.47;;;-1.20;69.87
82035;BME280;71599;49.892;18.914;2024-01-15T18:55:00;96842.34;;;-1.25;68.79
82035;BME280;71599;49.892;18.914;2024-01-15T19:00:03;96851.44;;;-1.17;69.26
82035;BME280;71599;49.892;18.914;2024-01-15T19:05:05;96841.78;;;-1.30;68.99
82035;BME280;71599;49.892;18.914;2024-01-15T19:10:06;96844.34;;;-1.34;69.37
82035;BME280;71599;49.892;18.914;2024-01-15T19:15:09;96847.13;;;-1.30;69.22
82035;BME280;71599;49.892;18.914;2024-01-15T19:20:11;96845.31;;;-1.38;69.12
82035;BME280;71599;49.892;18.914;2024-01-15T19:25:12;96845.78;;;-1.36;69.69
82035;BME280;71599;49.892;18.914;2024-01-15T19:30:15;96855.38;;;-1.35;70.10
82035;BME280;71599;49.892;18.914;2024-01-15T19:35:16;96853.56;;;-1.43;69.89
82035;BME280;71599;49.892;18.914;2024-01-15T19:40:17;96861.59;;;-1.43;69.10
82035;BME280;71599;49.892;18.914;2024-01-15T19:45:21;96791.63;;;-2.04;68.78
82035;BME280;71599;49.892;18.914;2024-01-15T19:50:22;96861.72;;;-1.61;68.86
82035;BME280;71599;49.892;18.914;2024-01-15T19:55:23;96875.38;;;-1.53;69.23
82035;BME280;71599;49.892;18.914;2024-01-15T20:00:26;96845.72;;;-1.69;68.61
82035;BME280;71599;49.892;18.914;2024-01-15T20:05:28;96836.78;;;-1.73;68.89
82035;BME280;71599;49.892;18.914;2024-01-15T20:10:30;96888.19;;;-1.38;68.50
82035;BME280;71599;49.892;18.914;2024-01-15T20:15:32;96883.50;;;-1.41;68.89
82035;BME280;71599;49.892;18.914;2024-01-15T20:20:33;96889.31;;;-1.39;68.32
82035;BME280;71599;49.892;18.914;2024-01-15T20:25:35;96908.41;;;-1.41;67.89
82035;BME280;71599;49.892;18.914;2024-01-15T20:30:38;96904.47;;;-1.43;68.09
82035;BME280;71599;49.892;18.914;2024-01-15T20:35:39;96912.38;;;-1.47;68.17
82035;BME280;71599;49.892;18.914;2024-01-15T20:40:41;96925.91;;;-1.43;67.85
82035;BME280;71599;49.892;18.914;2024-01-15T20:45:43;96915.06;;;-1.47;68.51
82035;BME280;71599;49.892;18.914;2024-01-15T20:50:44;96915.06;;;-1.47;67.74
82035;BME280;71599;49.892;18.914;2024-01-15T20:55:45;96934.78;;;-1.51;68.68
82035;BME280;71599;49.892;18.914;2024-01-15T21:00:48;96938.56;;;-1.52;68.23
82035;BME280;71599;49.892;18.914;2024-01-15T21:05:49;96942.97;;;-1.48;68.74
82035;BME280;71599;49.892;18.914;2024-01-15T21:10:50;96949.88;;;-1.47;68.38
82035;BME280;71599;49.892;18.914;2024-01-15T21:15:52;96951.00;;;-1.48;68.41
82035;BME280;71599;49.892;18.914;2024-01-15T21:20:53;96957.53;;;-1.57;69.10
82035;BME280;71599;49.892;18.914;2024-01-15T21:25:54;96954.00;;;-1.49;69.03
82035;BME280;71599;49.892;18.914;2024-01-15T21:30:57;96965.22;;;-1.56;69.83
82035;BME280;71599;49.892;18.914;2024-01-15T21:35:58;96977.66;;;-1.51;69.51
82035;BME280;71599;49.892;18.914;2024-01-15T21:40:59;96979.09;;;-1.54;69.11
82035;BME280;71599;49.892;18.914;2024-01-15T21:46:01;96979.56;;;-1.52;69.07
82035;BME280;71599;49.892;18.914;2024-01-15T21:51:02;96986.81;;;-1.52;68.92
82035;BME280;71599;49.892;18.914;2024-01-15T21:56:04;96977.19;;;-1.53;68.74
82035;BME280;71599;49.892;18.914;2024-01-15T22:01:06;96986.44;;;-1.51;68.52
82035;BME280;71599;49.892;18.914;2024-01-15T22:06:07;96987.06;;;-1.45;68.95
82035;BME280;71599;49.892;18.914;2024-01-15T22:11:08;97003.78;;;-1.48;69.23
82035;BME280;71599;49.892;18.914;2024-01-15T22:16:11;96993.44;;;-1.58;68.51
82035;BME280;71599;49.892;18.914;2024-01-15T22:21:12;96991.22;;;-1.56;69.16
82035;BME280;71599;49.892;18.914;2024-01-15T22:26:13;96998.31;;;-1.52;70.05
82035;BME280;71599;49.892;18.914;2024-01-15T22:31:15;97004.75;;;-1.53;69.47
82035;BME280;71599;49.892;18.914;2024-01-15T22:36:16;97012.16;;;-1.50;69.22
82035;BME280;71599;49.892;18.914;2024-01-15T22:41:17;97011.22;;;-1.54;69.60
82035;BME280;71599;49.892;18.914;2024-01-15T22:46:20;97004.78;;;-1.62;70.57
82035;BME280;71599;49.892;18.914;2024-01-15T22:51:21;97003.22;;;-1.63;71.41
82035;BME280;71599;49.892;18.914;2024-01-15T22:56:22;97008.56;;;-1.63;70.99
82035;BME280;71599;49.892;18.914;2024-01-15T23:01:24;97010.16;;;-1.62;71.30
82035;BME280;71599;49.892;18.914;2024-01-15T23:06:25;97013.44;;;-1.56;71.48
82035;BME280;71599;49.892;18.914;2024-01-15T23:11:26;97017.69;;;-1.55;71.96
82035;BME280;71599;49.892;18.914;2024-01-15T23:16:28;97026.19;;;-1.53;71.34
82035;BME280;71599;49.892;18.914;2024-01-15T23:21:29;97038.16;;;-1.50;72.37
82035;BME280;71599;49.892;18.914;2024-01-15T23:26:30;97036.25;;;-1.50;72.15
82035;BME280;71599;49.892;18.914;2024-01-15T23:31:33;97044.91;;;-1.44;71.65
82035;BME280;71599;49.892;18.914;2024-01-15T23:36:34;97056.09;;;-1.42;72.18
82035;BME280;71599;49.892;18.914;2024-01-15T23:41:34;97051.19;;;-1.40;72.86
82035;BME280;71599;49.892;18.914;2024-01-15T23:46:37;97053.09;;;-1.41;72.50
82035;BME280;71599;49.892;18.914;2024-01-15T23:51:38;97056.09;;;-1.42;72.43
82035;BME280;71599;49.892;18.914;2024-01-15T23:56:39;97060.47;;;-1.38;72.57
